Time;durP1;ratioP1;P1;durP2;ratioP2;P2;SDS_P1;SDS_P2;PMS_P1;PMS_P2;Temp;Humidity;BMP_temperature;BMP_pressure;BME280_temperature;BME280_humidity;BME280_pressure;Samples;Min_cycle;Max_cycle;Signal;HPM_P1;HPM_P2
2022/06/03 00:00:03;;;;;;;0.50;0.40;;;12.60;99.90;;;;;;5062176;28;20563;-84
2022/06/03 00:03:11;;;;;;;0.50;0.50;;;12.60;99.90;;;;;;5078677;28;20200;-83
2022/06/03 00:06:11;;;;;;;0.50;0.40;;;12.60;99.90;;;;;;5079850;28;20193;-84
2022/06/03 00:08:56;;;;;;;0.50;0.40;;;12.60;99.90;;;;;;5078993;28;20450;-84
2022/06/03 00:11:37;;;;;;;0.93;0.93;;;12.60;99.90;;;;;;5078953;28;20703;-84
2022/06/03 00:14:26;;;;;;;0.50;0.40;;;12.60;99.90;;;;;;5079830;28;20435;-83
2022/06/03 00:17:07;;;;;;;0.50;0.40;;;12.50;99.90;;;;;;5079694;28;20198;-83
2022/06/03 00:19:50;;;;;;;0.50;0.40;;;12.40;99.90;;;;;;5079982;28;20229;-84
2022/06/03 00:22:42;;;;;;;0.50;0.40;;;12.40;99.90;;;;;;5078785;28;20289;-84
2022/06/03 00:25:36;;;;;;;0.50;0.40;;;12.40;99.90;;;;;;5078506;28;20273;-83
2022/06/03 00:28:21;;;;;;;0.50;0.40;;;12.40;99.90;;;;;;5079214;28;20225;-84
2022/06/03 00:31:05;;;;;;;0.50;0.40;;;12.40;99.90;;;;;;5079219;28;20213;-83
2022/06/03 00:34:09;;;;;;;0.50;0.40;;;12.30;99.90;;;;;;5079054;28;20178;-83
2022/06/03 00:36:52;;;;;;;0.50;0.40;;;12.20;99.90;;;;;;5038468;28;20220;-81
2022/06/03 00:39:31;;;;;;;0.50;0.40;;;12.10;99.90;;;;;;5094547;28;20284;-85
2022/06/03 00:42:17;;;;;;;0.50;0.40;;;12.10;99.90;;;;;;5096147;28;20196;-82
2022/06/03 00:45:00;;;;;;;0.50;0.40;;;12.00;99.90;;;;;;5093462;28;20193;-84
2022/06/03 00:47:43;;;;;;;0.50;0.40;;;11.90;99.90;;;;;;5079537;28;20200;-84
2022/06/03 00:50:41;;;;;;;0.50;0.40;;;11.90;99.90;;;;;;5079684;28;20245;-84
2022/06/03 00:53:46;;;;;;;0.50;0.40;;;11.80;99.90;;;;;;5087651;28;20224;-83
2022/06/03 00:56:41;;;;;;;0.50;0.40;;;11.90;99.90;;;;;;5096599;28;20261;-83
2022/06/03 00:59:30;;;;;;;0.50;0.40;;;11.80;99.90;;;;;;5094691;28;20205;-83
2022/06/03 01:02:13;;;;;;;0.50;0.40;;;11.80;99.90;;;;;;5095028;28;20208;-84
2022/06/03 01:05:00;;;;;;;1.30;1.23;;;11.80;99.90;;;;;;5091841;28;20200;-80
2022/06/03 01:07:40;;;;;;;0.50;0.40;;;11.70;99.90;;;;;;5076763;28;20201;-84
2022/06/03 01:10:21;;;;;;;0.50;0.40;;;11.60;99.90;;;;;;5076420;28;20259;-84
2022/06/03 01:13:21;;;;;;;0.50;0.40;;;11.70;99.90;;;;;;5076226;28;20272;-81
2022/06/03 01:15:54;;;;;;;0.50;0.40;;;11.80;99.90;;;;;;5070250;28;20193;-84
2022/06/03 01:18:36;;;;;;;0.50;0.40;;;11.90;99.90;;;;;;5076110;28;20272;-85
2022/06/03 01:21:17;;;;;;;0.50;0.40;;;12.00;99.90;;;;;;5075782;28;20217;-83
2022/06/03 01:24:28;;;;;;;0.50;0.40;;;12.00;99.90;;;;;;5075517;28;20774;-84
2022/06/03 01:27:27;;;;;;;0.50;0.40;;;12.10;99.90;;;;;;5090200;28;20207;-84
2022/06/03 01:30:28;;;;;;;0.50;0.40;;;12.10;99.90;;;;;;5086167;28;20213;-84
2022/06/03 01:33:21;;;;;;;0.50;0.40;;;12.10;99.90;;;;;;5072622;28;20575;-84
2022/06/03 01:36:08;;;;;;;0.50;0.40;;;12.10;99.90;;;;;;5080935;28;20236;-84
2022/06/03 01:38:53;;;;;;;0.50;0.40;;;12.00;99.90;;;;;;5079445;28;20278;-83
2022/06/03 01:41:42;;;;;;;0.50;0.40;;;12.10;99.90;;;;;;5080183;28;20224;-84
2022/06/03 01:44:33;;;;;;;0.50;0.40;;;12.00;99.90;;;;;;5080151;28;20220;-84
2022/06/03 01:47:36;;;;;;;0.50;0.40;;;12.00;99.90;;;;;;5080468;28;20290;-84
2022/06/03 01:50:36;;;;;;;0.50;0.40;;;12.00;99.90;;;;;;5045227;28;20216;-84
2022/06/03 01:53:29;;;;;;;0.50;0.40;;;12.00;99.90;;;;;;5061457;28;20224;-83
2022/06/03 01:56:18;;;;;;;0.50;0.40;;;12.00;99.90;;;;;;5079250;28;20200;-84
2022/06/03 01:59:21;;;;;;;0.50;0.50;;;11.90;99.90;;;;;;5077363;28;20276;-83
2022/06/03 02:02:17;;;;;;;0.50;0.40;;;12.00;99.90;;;;;;5078646;28;20260;-84
2022/06/03 02:05:03;;;;;;;0.50;0.40;;;12.00;99.90;;;;;;5079824;28;20205;-84
2022/06/03 02:08:05;;;;;;;0.60;0.60;;;11.90;99.90;;;;;;5078389;28;20284;-84
2022/06/03 02:10:56;;;;;;;0.50;0.40;;;11.80;99.90;;;;;;5079315;28;20644;-83
2022/06/03 02:13:52;;;;;;;0.50;0.40;;;11.80;99.90;;;;;;5078438;28;20206;-84
2022/06/03 02:16:46;;;;;;;0.50;0.40;;;11.70;99.90;;;;;;5079260;28;20213;-84
2022/06/03 02:19:37;;;;;;;0.50;0.40;;;11.70;99.90;;;;;;5078491;28;20253;-83
2022/06/03 02:22:33;;;;;;;0.50;0.40;;;11.60;99.90;;;;;;5078756;28;20265;-84
2022/06/03 02:25:37;;;;;;;0.50;0.40;;;11.60;99.90;;;;;;5079177;28;20241;-84
2022/06/03 02:28:30;;;;;;;0.50;0.40;;;11.60;99.90;;;;;;5078018;28;20231;-84
2022/06/03 02:31:23;;;;;;;0.50;0.40;;;11.50;99.90;;;;;;5078804;28;20235;-84
2022/06/03 02:34:27;;;;;;;0.50;0.40;;;11.50;99.90;;;;;;5066674;28;20243;-84
2022/06/03 02:37:31;;;;;;;0.50;0.40;;;11.40;99.90;;;;;;5077863;28;20201;-84
2022/06/03 02:40:28;;;;;;;0.60;0.55;;;11.20;99.90;;;;;;5077129;28;20260;-84
2022/06/03 02:43:26;;;;;;;0.50;0.40;;;11.30;99.90;;;;;;5077144;28;20200;-84
2022/06/03 02:46:19;;;;;;;0.50;0.40;;;11.20;99.90;;;;;;5078211;28;20189;-84
2022/06/03 02:49:23;;;;;;;0.50;0.40;;;11.10;99.90;;;;;;5081248;28;20212;-84
2022/06/03 02:52:07;;;;;;;0.50;0.40;;;11.00;99.90;;;;;;5081172;28;20663;-84
2022/06/03 02:55:04;;;;;;;0.80;0.80;;;11.00;99.90;;;;;;5081087;28;20208;-84
2022/06/03 02:57:57;;;;;;;0.50;0.40;;;10.90;99.90;;;;;;5079747;28;20567;-84
2022/06/03 03:00:42;;;;;;;0.50;0.50;;;10.90;99.90;;;;;;5080969;28;20289;-84
2022/06/03 03:03:35;;;;;;;0.50;0.40;;;10.90;99.90;;;;;;5081591;28;20201;-83
2022/06/03 03:06:37;;;;;;;0.77;0.60;;;10.90;99.90;;;;;;5073030;28;20616;-83
2022/06/03 03:09:20;;;;;;;0.50;0.40;;;10.70;99.90;;;;;;5080503;28;20240;-84
2022/06/03 03:12:04;;;;;;;0.50;0.40;;;10.60;99.90;;;;;;5082083;28;20287;-84
2022/06/03 03:14:54;;;;;;;0.50;0.40;;;10.60;99.90;;;;;;5079183;28;20295;-83
2022/06/03 03:17:49;;;;;;;0.50;0.40;;;10.60;99.90;;;;;;5078723;28;20229;-82
2022/06/03 03:20:40;;;;;;;0.52;0.40;;;10.60;99.90;;;;;;5077410;28;20316;-83
2022/06/03 03:23:26;;;;;;;0.50;0.40;;;10.60;99.90;;;;;;5077500;28;20228;-82
2022/06/03 03:26:03;;;;;;;1.02;1.02;;;10.70;99.90;;;;;;5077775;28;20637;-83
2022/06/03 03:29:13;;;;;;;0.50;0.40;;;10.70;99.90;;;;;;5076929;28;20267;-83
2022/06/03 03:32:04;;;;;;;0.50;0.40;;;10.50;99.90;;;;;;5051833;28;20196;-82
2022/06/03 03:35:05;;;;;;;0.50;0.40;;;10.40;99.90;;;;;;5077740;28;20207;-82
2022/06/03 03:37:59;;;;;;;1.98;1.88;;;10.40;99.90;;;;;;5070127;28;20222;-82
2022/06/03 03:40:49;;;;;;;0.50;0.40;;;10.30;99.90;;;;;;5076829;28;20267;-81
2022/06/03 03:43:38;;;;;;;0.50;0.50;;;10.30;99.90;;;;;;5077380;28;20241;-83
2022/06/03 03:46:47;;;;;;;0.50;0.40;;;10.30;99.90;;;;;;5077222;28;20686;-83
2022/06/03 03:49:52;;;;;;;0.50;0.40;;;10.20;99.90;;;;;;5076905;28;20227;-82
2022/06/03 03:52:57;;;;;;;0.50;0.50;;;10.20;99.90;;;;;;5076350;28;20202;-82
2022/06/03 03:55:56;;;;;;;0.50;0.40;;;10.20;99.90;;;;;;5047483;28;20882;-82
2022/06/03 03:59:05;;;;;;;0.50;0.40;;;10.20;99.90;;;;;;5057527;28;20236;-83
2022/06/03 04:02:21;;;;;;;0.50;0.40;;;10.30;99.90;;;;;;5029000;28;20216;-82
2022/06/03 04:05:24;;;;;;;0.50;0.40;;;10.30;99.90;;;;;;5075689;28;20749;-83
2022/06/03 04:08:45;;;;;;;0.50;0.40;;;10.40;99.90;;;;;;5037133;28;20229;-83
2022/06/03 04:11:49;;;;;;;0.50;0.40;;;10.30;99.90;;;;;;5075630;28;20215;-83
2022/06/03 04:14:48;;;;;;;0.50;0.40;;;10.30;99.90;;;;;;5075802;28;20280;-82
2022/06/03 04:17:35;;;;;;;0.50;0.40;;;10.40;99.90;;;;;;5076318;28;20278;-82
2022/06/03 04:20:26;;;;;;;0.60;0.60;;;10.40;99.90;;;;;;5075153;28;20253;-82
2022/06/03 04:23:53;;;;;;;0.50;0.40;;;10.50;99.90;;;;;;5075803;28;20293;-82
2022/06/03 04:26:51;;;;;;;0.50;0.40;;;10.50;99.90;;;;;;5076129;28;20250;-83
2022/06/03 04:29:52;;;;;;;0.50;0.40;;;10.60;99.90;;;;;;5075374;28;20262;-83
2022/06/03 04:32:44;;;;;;;0.50;0.40;;;10.70;99.90;;;;;;5075472;28;20266;-83
2022/06/03 04:35:45;;;;;;;0.50;0.40;;;10.80;99.90;;;;;;5072438;28;20292;-81
2022/06/03 04:38:58;;;;;;;0.50;0.40;;;10.90;99.90;;;;;;5070128;28;20227;-82
2022/06/03 04:42:07;;;;;;;0.50;0.40;;;10.90;99.90;;;;;;5075532;28;20311;-82
2022/06/03 04:45:10;;;;;;;0.50;0.40;;;10.90;99.90;;;;;;5073960;28;20255;-82
2022/06/03 04:48:19;;;;;;;0.60;0.60;;;11.00;99.90;;;;;;5023172;28;20228;-81
2022/06/03 04:51:15;;;;;;;0.85;0.85;;;11.10;99.90;;;;;;5074486;28;20785;-81
2022/06/03 04:57:20;;;;;;;0.50;0.40;;;11.10;99.90;;;;;;5107437;27;1276695;-84
2022/06/03 05:00:12;;;;;;;0.50;0.40;;;11.30;99.90;;;;;;5113655;28;20303;-82
2022/06/03 05:03:09;;;;;;;0.50;0.40;;;11.40;99.90;;;;;;5115908;28;20223;-81
2022/06/03 05:06:23;;;;;;;0.50;0.40;;;11.50;99.90;;;;;;5117709;28;20192;-84
2022/06/03 05:09:41;;;;;;;1.50;1.40;;;11.60;99.90;;;;;;5042453;28;20300;-85
2022/06/03 05:12:56;;;;;;;0.50;0.40;;;11.70;99.90;;;;;;5114339;28;20620;-84
2022/06/03 05:16:06;;;;;;;0.50;0.40;;;11.80;99.90;;;;;;5114266;28;20216;-85
2022/06/03 05:19:30;;;;;;;0.50;0.40;;;11.90;99.90;;;;;;5113726;28;20193;-83
2022/06/03 05:22:21;;;;;;;0.50;0.40;;;12.00;99.90;;;;;;5113562;28;20200;-84
2022/06/03 05:25:07;;;;;;;0.50;0.50;;;12.10;99.90;;;;;;5113869;28;20239;-84
2022/06/03 05:28:10;;;;;;;0.50;0.40;;;12.20;99.90;;;;;;5114492;28;20641;-83
2022/06/03 05:31:02;;;;;;;1.15;1.05;;;12.30;99.90;;;;;;5114019;28;20303;-81
2022/06/03 05:34:01;;;;;;;0.80;0.70;;;12.40;99.90;;;;;;5074612;28;20586;-83
2022/06/03 05:37:08;;;;;;;0.50;0.50;;;12.50;99.90;;;;;;5115273;28;20250;-84
2022/06/03 05:40:02;;;;;;;0.50;0.40;;;12.60;99.90;;;;;;5113994;28;20299;-82
2022/06/03 05:43:19;;;;;;;0.60;0.50;;;12.70;99.90;;;;;;5113711;28;20186;-84
2022/06/03 05:46:08;;;;;;;8.00;2.30;;;12.80;99.90;;;;;;5113714;28;20197;-85
2022/06/03 05:48:57;;;;;;;0.50;0.40;;;13.00;99.90;;;;;;5114040;28;20386;-83
2022/06/03 05:51:54;;;;;;;0.80;0.70;;;13.20;99.90;;;;;;5113568;28;20286;-86
2022/06/03 05:54:48;;;;;;;2.20;2.10;;;13.40;99.90;;;;;;5064921;28;20196;-86
2022/06/03 05:57:30;;;;;;;1.07;0.97;;;13.60;99.90;;;;;;5113149;28;20514;-83
2022/06/03 06:00:17;;;;;;;0.50;0.40;;;13.80;99.90;;;;;;5113664;28;20451;-86
2022/06/03 06:02:49;;;;;;;0.50;0.40;;;14.00;99.90;;;;;;5113583;28;20479;-86
2022/06/03 06:05:30;;;;;;;0.50;0.50;;;14.20;99.90;;;;;;5113061;28;20474;-86
2022/06/03 06:08:08;;;;;;;0.50;0.40;;;14.40;99.90;;;;;;5099049;28;20439;-86
2022/06/03 06:10:48;;;;;;;0.50;0.40;;;14.70;99.90;;;;;;5098666;28;20534;-86
2022/06/03 06:13:28;;;;;;;0.50;0.40;;;14.90;99.90;;;;;;5100012;28;20510;-86
2022/06/03 06:16:09;;;;;;;0.80;0.70;;;15.30;99.90;;;;;;5099250;28;20547;-86
2022/06/03 06:18:47;;;;;;;0.50;0.40;;;16.50;99.90;;;;;;5099360;28;20508;-85
2022/06/03 06:21:34;;;;;;;2.03;1.00;;;18.30;99.90;;;;;;5099260;28;20518;-86
2022/06/03 06:24:11;;;;;;;0.50;0.40;;;19.10;99.90;;;;;;5099701;28;20454;-86
2022/06/03 06:27:25;;;;;;;0.50;0.30;;;19.00;99.90;;;;;;5082125;22;20503;-82
2022/06/03 06:30:22;;;;;;;0.50;0.30;;;18.80;99.90;;;;;;5008443;28;20448;-82
2022/06/03 06:33:22;;;;;;;0.60;0.50;;;18.90;99.90;;;;;;5011510;28;20450;-80
2022/06/03 06:36:20;;;;;;;0.50;0.30;;;20.00;99.90;;;;;;5018118;28;20506;-80
2022/06/03 06:39:02;;;;;;;0.60;0.60;;;21.70;99.90;;;;;;5008410;28;20470;-80
2022/06/03 06:41:43;;;;;;;0.50;0.33;;;23.40;90.40;;;;;;5017431;28;20857;-80
2022/06/03 06:44:32;;;;;;;0.50;0.40;;;24.70;80.70;;;;;;5018323;28;20466;-80
2022/06/03 06:47:13;;;;;;;0.50;0.30;;;25.90;74.70;;;;;;5018650;28;20458;-80
2022/06/03 06:49:50;;;;;;;0.50;0.30;;;27.00;69.80;;;;;;5017690;28;20435;-82
2022/06/03 06:52:41;;;;;;;0.50;0.30;;;27.80;63.90;;;;;;5017602;28;20494;-80
2022/06/03 06:55:16;;;;;;;0.50;0.30;;;29.10;60.70;;;;;;5015584;28;20565;-81
2022/06/03 06:57:46;;;;;;;0.60;0.40;;;29.80;57.80;;;;;;5016901;28;20462;-80
2022/06/03 07:00:24;;;;;;;0.50;0.40;;;30.00;56.20;;;;;;5018499;28;20447;-81
2022/06/03 07:02:55;;;;;;;0.50;0.30;;;30.60;55.70;;;;;;5018583;28;20466;-78
2022/06/03 07:05:30;;;;;;;0.50;0.30;;;30.70;54.30;;;;;;5018741;28;20443;-80
2022/06/03 07:08:02;;;;;;;0.50;0.30;;;30.50;52.80;;;;;;5017760;28;20892;-81
2022/06/03 07:10:34;;;;;;;0.60;0.47;;;30.20;53.10;;;;;;5017953;28;20478;-81
2022/06/03 07:13:13;;;;;;;0.50;0.30;;;30.50;53.10;;;;;;5018300;28;20439;-81
2022/06/03 07:16:06;;;;;;;0.50;0.30;;;31.20;54.00;;;;;;5017835;28;20477;-81
2022/06/03 07:21:37;;;;;;;0.50;0.30;;;33.40;50.00;;;;;;5017271;28;20947;-81
2022/06/03 07:24:10;;;;;;;0.50;0.30;;;33.50;48.60;;;;;;5015892;28;20515;-80
2022/06/03 07:26:38;;;;;;;0.50;0.30;;;33.30;47.80;;;;;;5016343;28;20908;-81
2022/06/03 07:29:13;;;;;;;0.50;0.30;;;33.60;49.00;;;;;;5015472;28;20526;-80
2022/06/03 07:31:48;;;;;;;0.50;0.30;;;34.20;47.40;;;;;;5016933;28;20473;-80
2022/06/03 07:34:20;;;;;;;0.50;0.30;;;33.50;47.80;;;;;;5016299;28;20954;-80
2022/06/03 07:36:54;;;;;;;0.50;0.40;;;33.00;47.00;;;;;;5015958;28;20491;-81
2022/06/03 07:39:39;;;;;;;0.50;0.30;;;32.80;48.50;;;;;;5016620;28;20432;-80
2022/06/03 07:42:10;;;;;;;0.60;0.40;;;32.90;49.40;;;;;;5019373;28;20786;-80
2022/06/03 07:44:45;;;;;;;0.50;0.30;;;33.40;49.40;;;;;;5016754;28;20531;-81
2022/06/03 07:47:15;;;;;;;0.50;0.30;;;33.30;49.50;;;;;;5016477;28;20554;-82
2022/06/03 07:49:53;;;;;;;0.50;0.30;;;33.40;48.20;;;;;;5016270;28;20495;-80
2022/06/03 07:52:27;;;;;;;0.50;0.30;;;34.40;49.10;;;;;;5015661;28;20649;-80
2022/06/03 07:54:56;;;;;;;0.50;0.30;;;35.40;46.80;;;;;;5016141;28;20435;-81
2022/06/03 07:57:26;;;;;;;0.50;0.30;;;36.20;46.20;;;;;;5016037;28;20467;-80
2022/06/03 07:59:57;;;;;;;0.50;0.30;;;36.40;44.00;;;;;;5016250;28;20959;-81
2022/06/03 08:02:26;;;;;;;0.47;0.30;;;36.50;44.30;;;;;;5018598;28;20489;-81
2022/06/03 08:05:04;;;;;;;0.50;0.30;;;36.60;43.70;;;;;;5017612;28;20534;-81
2022/06/03 08:13:06;;;;;;;0.50;0.30;;;36.90;44.20;;;;;;5016348;28;20774;-81
2022/06/03 08:15:35;;;;;;;0.50;0.30;;;37.20;42.60;;;;;;5015615;28;20470;-81
2022/06/03 08:18:06;;;;;;;0.40;0.30;;;37.60;43.00;;;;;;5015810;28;20468;-82
2022/06/03 08:20:47;;;;;;;0.50;0.40;;;38.20;42.60;;;;;;5015625;28;20499;-81
2022/06/03 08:23:16;;;;;;;0.40;0.30;;;38.90;41.90;;;;;;5015418;28;20467;-81
2022/06/03 08:25:46;;;;;;;0.40;0.30;;;39.00;41.00;;;;;;5015280;28;20558;-80
2022/06/03 08:28:18;;;;;;;0.40;0.30;;;38.80;40.90;;;;;;5015088;28;20458;-80
2022/06/03 08:30:48;;;;;;;0.40;0.30;;;39.10;41.10;;;;;;5016458;28;20447;-80
2022/06/03 08:33:27;;;;;;;0.40;0.30;;;39.40;40.00;;;;;;5017235;28;20451;-80
2022/06/03 08:35:54;;;;;;;1.27;1.23;;;39.10;40.70;;;;;;5016323;28;20449;-81
2022/06/03 08:38:28;;;;;;;0.40;0.30;;;39.80;39.90;;;;;;5015235;28;20474;-81
2022/06/03 08:41:20;;;;;;;0.40;0.30;;;40.30;39.70;;;;;;5016960;28;20455;-80
2022/06/03 08:44:08;;;;;;;0.40;0.30;;;39.20;38.90;;;;;;5015326;28;20420;-81
2022/06/03 08:46:38;;;;;;;0.40;0.30;;;39.60;41.10;;;;;;5014836;28;20565;-80
2022/06/03 08:49:10;;;;;;;2.17;0.80;;;40.10;39.40;;;;;;5015208;28;20451;-81
2022/06/03 08:51:41;;;;;;;0.40;0.30;;;40.20;38.20;;;;;;5017026;28;20886;-80
2022/06/03 08:54:18;;;;;;;0.40;0.30;;;39.30;39.00;;;;;;5016161;28;20534;-81
2022/06/03 08:56:47;;;;;;;0.40;0.30;;;39.40;39.10;;;;;;5016370;28;20549;-80
2022/06/03 08:59:18;;;;;;;0.40;0.30;;;40.10;40.20;;;;;;5015611;28;20435;-81
2022/06/03 09:01:52;;;;;;;0.40;0.30;;;40.00;39.10;;;;;;5016433;28;20443;-81
2022/06/03 09:04:30;;;;;;;0.40;0.30;;;40.30;39.30;;;;;;5015700;28;20457;-81
2022/06/03 09:07:04;;;;;;;0.40;0.30;;;40.70;38.10;;;;;;5015615;28;20506;-81
2022/06/03 09:09:36;;;;;;;0.40;0.30;;;40.10;38.00;;;;;;5015383;28;20499;-80
2022/06/03 09:12:15;;;;;;;0.40;0.30;;;39.80;38.90;;;;;;5015529;28;20463;-81
2022/06/03 09:14:44;;;;;;;0.40;0.30;;;39.70;39.00;;;;;;5015818;28;20510;-81
2022/06/03 09:17:29;;;;;;;0.40;0.30;;;39.10;38.70;;;;;;5016093;28;20470;-81
2022/06/03 09:20:02;;;;;;;0.40;0.30;;;39.20;39.50;;;;;;5015648;28;20471;-82
2022/06/03 09:22:31;;;;;;;0.40;0.30;;;39.90;38.00;;;;;;5016382;28;20506;-81
2022/06/03 09:25:01;;;;;;;0.40;0.30;;;39.50;38.80;;;;;;5015572;28;20449;-80
2022/06/03 09:27:30;;;;;;;0.87;0.87;;;39.10;38.30;;;;;;5015360;28;20918;-80
2022/06/03 09:30:02;;;;;;;0.40;0.30;;;38.70;38.50;;;;;;5015009;28;20447;-81
2022/06/03 09:32:34;;;;;;;0.40;0.30;;;37.80;39.50;;;;;;5014881;28;20529;-79
2022/06/03 09:35:07;;;;;;;0.50;0.30;;;37.20;38.70;;;;;;5014971;28;20506;-80
2022/06/03 09:37:37;;;;;;;0.50;0.30;;;36.80;39.70;;;;;;5015202;28;21092;-81
2022/06/03 09:40:10;;;;;;;0.50;0.30;;;36.70;40.20;;;;;;5015375;28;20542;-81
2022/06/03 09:42:38;;;;;;;0.50;0.30;;;36.10;41.40;;;;;;5017966;28;20462;-81
2022/06/03 09:45:07;;;;;;;0.50;0.30;;;36.50;40.00;;;;;;5018989;28;20451;-81
2022/06/03 09:47:36;;;;;;;0.47;0.30;;;36.30;40.50;;;;;;5018664;28;21000;-81
2022/06/03 09:50:06;;;;;;;0.50;0.30;;;36.40;40.80;;;;;;5018443;28;20439;-81
2022/06/03 09:52:33;;;;;;;0.40;0.30;;;36.50;40.70;;;;;;5019813;28;20522;-80
2022/06/03 09:55:07;;;;;;;0.40;0.30;;;36.90;41.60;;;;;;5019684;28;20454;-81
2022/06/03 09:57:37;;;;;;;0.40;0.40;;;37.20;40.20;;;;;;5020866;28;20451;-81
2022/06/03 10:00:09;;;;;;;0.60;0.50;;;37.60;40.70;;;;;;5018867;28;20443;-80
2022/06/03 10:02:36;;;;;;;0.50;0.30;;;37.70;38.60;;;;;;5019184;28;20431;-81
2022/06/03 10:05:07;;;;;;;0.40;0.30;;;36.80;38.90;;;;;;5018881;28;20523;-80
2022/06/03 10:07:34;;;;;;;0.80;0.77;;;36.60;40.20;;;;;;5019338;28;20562;-81
2022/06/03 10:12:52;;;;;;;0.40;0.30;;;37.50;41.10;;;;;;5019224;28;20506;-80
2022/06/03 10:18:07;;;;;;;0.40;0.30;;;37.10;39.40;;;;;;5015967;28;20497;-81
2022/06/03 10:20:36;;;;;;;0.47;0.30;;;36.30;39.80;;;;;;5019493;28;20449;-81
2022/06/03 10:23:04;;;;;;;0.40;0.30;;;36.30;42.50;;;;;;5020091;28;20470;-81
2022/06/03 10:25:32;;;;;;;0.50;0.30;;;36.40;41.10;;;;;;5018887;28;20493;-81
2022/06/03 10:28:04;;;;;;;0.40;0.30;;;36.50;40.70;;;;;;5019701;28;20483;-81
2022/06/03 10:30:33;;;;;;;0.40;0.30;;;36.70;41.40;;;;;;5020436;28;20455;-81
2022/06/03 10:33:01;;;;;;;0.50;0.30;;;36.10;40.10;;;;;;5020008;28;20879;-80
2022/06/03 10:35:31;;;;;;;0.50;0.30;;;34.90;40.20;;;;;;5019376;28;20583;-80
2022/06/03 10:38:03;;;;;;;0.50;0.30;;;34.30;41.00;;;;;;5019391;28;20493;-81
2022/06/03 10:40:31;;;;;;;0.50;0.30;;;33.90;42.10;;;;;;5020553;28;20435;-80
2022/06/03 10:43:00;;;;;;;0.50;0.30;;;33.10;43.00;;;;;;5020059;28;20518;-81
2022/06/03 10:45:28;;;;;;;0.50;0.30;;;33.00;44.70;;;;;;5019814;28;20538;-81
2022/06/03 10:47:55;;;;;;;0.50;0.30;;;33.10;44.00;;;;;;5018633;28;20529;-81
2022/06/03 10:50:29;;;;;;;0.50;0.30;;;33.40;43.80;;;;;;5018628;28;20865;-81
2022/06/03 11:01:33;;;;;;;0.50;0.30;;;33.60;44.40;;;;;;5018872;28;20410;-81
2022/06/03 11:04:00;;;;;;;0.50;0.30;;;34.80;42.70;;;;;;5018033;28;20531;-81
2022/06/03 11:06:34;;;;;;;0.50;0.40;;;34.30;40.90;;;;;;5018294;28;20513;-81
2022/06/03 11:09:06;;;;;;;0.50;0.30;;;33.60;41.70;;;;;;5017525;28;21015;-81
2022/06/03 11:11:36;;;;;;;0.50;0.30;;;32.10;42.10;;;;;;5019442;28;20423;-78
2022/06/03 11:14:23;;;;;;;0.50;0.30;;;31.70;45.20;;;;;;5018934;28;20474;-81
2022/06/03 11:16:51;;;;;;;4.10;0.80;;;32.00;45.80;;;;;;5018672;28;20461;-81
2022/06/03 11:19:19;;;;;;;0.50;0.30;;;32.00;45.30;;;;;;5018617;28;20526;-80
2022/06/03 11:21:46;;;;;;;0.50;0.30;;;32.10;44.00;;;;;;5019551;28;20474;-81
2022/06/03 11:24:15;;;;;;;0.50;0.30;;;32.90;45.20;;;;;;5019079;28;20856;-81
2022/06/03 11:26:46;;;;;;;0.50;0.30;;;33.90;46.10;;;;;;5018109;28;20510;-81
2022/06/03 11:29:17;;;;;;;0.50;0.30;;;34.40;43.20;;;;;;5017852;28;20443;-81
2022/06/03 11:31:47;;;;;;;0.50;0.30;;;34.20;42.00;;;;;;5018294;28;20602;-82
2022/06/03 11:34:22;;;;;;;0.50;0.30;;;33.60;42.00;;;;;;5018868;28;20509;-81
2022/06/03 11:36:55;;;;;;;0.50;0.40;;;34.00;44.30;;;;;;5018476;28;20466;-81
2022/06/03 11:39:28;;;;;;;0.50;0.30;;;34.40;42.20;;;;;;5018497;28;20454;-81
2022/06/03 11:41:59;;;;;;;0.50;0.30;;;34.30;43.20;;;;;;5018749;28;20438;-80
2022/06/03 11:44:35;;;;;;;0.50;0.30;;;35.10;43.80;;;;;;5018313;28;20954;-81
2022/06/03 11:47:08;;;;;;;0.50;0.30;;;35.30;41.90;;;;;;5017668;28;20995;-81
2022/06/03 11:49:34;;;;;;;0.40;0.30;;;35.10;41.30;;;;;;5017710;28;20494;-81
2022/06/03 11:52:02;;;;;;;0.50;0.30;;;35.20;40.90;;;;;;5016905;28;20453;-81
2022/06/03 11:54:31;;;;;;;0.50;0.30;;;35.20;40.50;;;;;;5017695;28;20447;-81
2022/06/03 11:57:02;;;;;;;0.43;0.30;;;35.80;42.00;;;;;;5017858;28;20518;-81
2022/06/03 11:59:33;;;;;;;0.43;0.30;;;36.50;42.80;;;;;;5018571;28;20451;-81
2022/06/03 12:02:09;;;;;;;0.50;0.40;;;37.00;40.20;;;;;;5017415;28;20470;-81
2022/06/03 12:04:45;;;;;;;0.40;0.30;;;37.20;40.00;;;;;;5017073;28;20807;-81
2022/06/03 12:07:22;;;;;;;0.40;0.30;;;38.00;40.30;;;;;;5020231;28;20568;-81
2022/06/03 12:09:57;;;;;;;0.40;0.30;;;38.20;40.50;;;;;;5018037;28;20526;-80
2022/06/03 12:15:46;;;;;;;0.47;0.30;;;37.20;40.00;;;;;;5017683;28;20411;-81
2022/06/03 12:18:43;;;;;;;0.50;0.30;;;36.50;39.00;;;;;;5007771;28;20518;-81
2022/06/03 12:21:14;;;;;;;0.60;0.60;;;34.50;39.90;;;;;;5016919;28;20824;-80
2022/06/03 12:23:53;;;;;;;0.50;0.30;;;33.20;41.50;;;;;;5019089;28;20427;-79
2022/06/03 12:26:31;;;;;;;0.50;0.30;;;32.60;42.60;;;;;;5017320;28;20469;-79
2022/06/03 12:29:03;;;;;;;0.50;0.30;;;32.20;43.10;;;;;;5017216;28;20964;-80
2022/06/03 12:31:41;;;;;;;0.50;0.30;;;32.20;44.70;;;;;;5018359;28;20423;-81
2022/06/03 12:34:21;;;;;;;0.50;0.40;;;32.70;44.40;;;;;;5018083;28;20471;-81
2022/06/03 12:37:00;;;;;;;0.50;0.30;;;32.90;43.10;;;;;;5017135;28;20517;-80
2022/06/03 12:39:30;;;;;;;0.50;0.40;;;33.10;43.60;;;;;;5016585;28;20442;-81
2022/06/03 12:42:29;;;;;;;0.50;0.30;;;33.60;42.60;;;;;;5017314;28;20529;-80
2022/06/03 12:45:33;;;;;;;0.50;0.30;;;34.10;43.20;;;;;;5019192;28;20503;-81
2022/06/03 12:48:01;;;;;;;0.50;0.30;;;35.00;43.60;;;;;;5017137;28;20482;-81
2022/06/03 12:50:35;;;;;;;0.40;0.30;;;36.30;42.50;;;;;;5019051;28;20469;-81
2022/06/03 12:53:25;;;;;;;0.40;0.30;;;37.00;42.60;;;;;;5018824;28;20447;-81
2022/06/03 12:55:57;;;;;;;0.40;0.30;;;37.20;40.30;;;;;;5017629;28;20478;-81
2022/06/03 12:58:45;;;;;;;0.50;0.30;;;36.40;39.20;;;;;;5016366;28;20411;-80
2022/06/03 13:01:13;;;;;;;0.50;0.40;;;35.50;39.80;;;;;;5018029;28;20435;-80
2022/06/03 13:03:43;;;;;;;0.50;0.30;;;35.30;41.00;;;;;;5017039;28;20463;-81
2022/06/03 13:06:10;;;;;;;0.50;0.30;;;34.70;41.10;;;;;;5016322;28;20462;-80
2022/06/03 13:11:43;;;;;;;0.40;0.30;;;34.20;42.30;;;;;;5017746;28;20681;-81
2022/06/03 13:14:28;;;;;;;0.50;0.30;;;34.60;43.20;;;;;;5018081;28;20498;-80
2022/06/03 13:16:55;;;;;;;0.50;0.33;;;34.90;42.30;;;;;;5019144;28;20557;-81
2022/06/03 13:19:56;;;;;;;0.60;0.50;;;35.30;42.00;;;;;;5021048;28;20445;-80
2022/06/03 13:22:49;;;;;;;0.50;0.30;;;34.30;42.00;;;;;;5020562;28;20499;-81
2022/06/03 13:25:33;;;;;;;0.50;0.30;;;33.50;42.60;;;;;;5020769;28;20462;-80
2022/06/03 13:28:25;;;;;;;0.50;0.40;;;33.10;43.10;;;;;;5021408;28;20482;-80
2022/06/03 13:31:17;;;;;;;0.50;0.30;;;32.90;43.80;;;;;;5021793;28;20433;-80
2022/06/03 13:34:16;;;;;;;0.50;0.30;;;32.50;44.70;;;;;;5022425;28;20496;-80
2022/06/03 13:36:48;;;;;;;0.50;0.40;;;32.20;46.10;;;;;;5021351;28;21004;-81
2022/06/03 13:40:05;;;;;;;0.50;0.40;;;31.30;45.40;;;;;;5020780;28;20441;-81
2022/06/03 13:43:02;;;;;;;0.50;0.30;;;30.40;46.40;;;;;;4999238;28;20756;-81
2022/06/03 13:45:46;;;;;;;0.50;0.30;;;30.00;48.30;;;;;;5020001;28;20498;-80
2022/06/03 13:48:17;;;;;;;0.50;0.30;;;29.70;48.00;;;;;;5020877;28;20482;-80
2022/06/03 13:50:44;;;;;;;0.50;0.30;;;29.60;49.00;;;;;;5021605;28;20533;-80
2022/06/03 13:53:14;;;;;;;0.50;0.30;;;29.50;49.30;;;;;;5020714;28;20465;-81
2022/06/03 13:55:52;;;;;;;1.37;1.27;;;29.60;49.60;;;;;;5021429;28;20533;-80
2022/06/03 13:58:33;;;;;;;0.50;0.30;;;29.40;49.20;;;;;;5021552;28;20462;-80
2022/06/03 14:01:06;;;;;;;0.50;0.30;;;29.30;50.10;;;;;;5021855;28;20546;-81
2022/06/03 14:03:35;;;;;;;0.50;0.30;;;29.40;50.60;;;;;;5022257;28;20458;-81
2022/06/03 14:06:13;;;;;;;1.03;0.40;;;29.60;50.80;;;;;;5020898;28;20474;-80
2022/06/03 14:08:44;;;;;;;0.50;0.30;;;29.70;50.50;;;;;;5019561;28;20565;-81
2022/06/03 14:11:16;;;;;;;0.50;0.40;;;29.90;49.90;;;;;;5020797;28;20453;-81
2022/06/03 14:13:57;;;;;;;0.50;0.30;;;30.10;49.40;;;;;;5020153;28;20550;-81
2022/06/03 14:16:29;;;;;;;0.50;0.30;;;30.00;49.50;;;;;;5020613;28;20495;-80
2022/06/03 14:19:03;;;;;;;0.50;0.30;;;30.20;50.00;;;;;;5018749;28;20944;-81
2022/06/03 14:21:40;;;;;;;0.50;0.30;;;30.20;49.70;;;;;;5020042;28;20470;-81
2022/06/03 14:24:14;;;;;;;0.50;0.30;;;30.00;50.20;;;;;;5020039;28;20984;-81
2022/06/03 14:26:46;;;;;;;0.50;0.30;;;29.60;49.00;;;;;;5019981;28;20506;-81
2022/06/03 14:29:19;;;;;;;0.50;0.30;;;29.30;49.50;;;;;;5019817;28;20475;-81
2022/06/03 14:31:51;;;;;;;0.50;0.40;;;29.20;50.20;;;;;;5019938;28;20468;-80
2022/06/03 14:34:24;;;;;;;0.50;0.30;;;29.00;51.10;;;;;;5020446;28;20856;-80
2022/06/03 14:36:54;;;;;;;0.50;0.30;;;28.80;51.20;;;;;;5020694;28;20459;-81
2022/06/03 14:39:25;;;;;;;0.50;0.30;;;28.70;51.70;;;;;;5019540;28;20475;-81
2022/06/03 14:41:55;;;;;;;0.50;0.30;;;28.50;52.30;;;;;;5019380;28;20449;-81